createdAt,value
2022-12-31T00:01:46.388Z,69.03
2022-12-31T00:04:13.172Z,62.25
2022-12-31T00:06:39.820Z,68.93
2022-12-31T00:09:09.870Z,63.20
2022-12-31T00:11:37.673Z,67.28
2022-12-31T00:14:04.756Z,64.90
2022-12-31T00:16:36.474Z,64.07
2022-12-31T00:19:05.129Z,68.18
2022-12-31T00:21:33.505Z,66.40
2022-12-31T00:24:00.992Z,61.30
2022-12-31T00:26:29.926Z,67.78
2022-12-31T00:28:58.447Z,61.85
2022-12-31T00:31:28.184Z,75.20
2022-12-31T00:33:55.708Z,98.35
2022-12-31T00:36:26.092Z,101.30
2022-12-31T00:38:54.654Z,96.53
2022-12-31T00:41:22.549Z,101.38
2022-12-31T00:43:49.602Z,102.25
2022-12-31T00:46:16.994Z,100.25
2022-12-31T00:48:43.660Z,97.50
2022-12-31T00:51:12.625Z,102.82
2022-12-31T00:53:39.877Z,109.82
2022-12-31T00:56:18.466Z,106.30
2022-12-31T00:58:45.359Z,96.47
2022-12-31T01:01:20.045Z,96.47
2022-12-31T01:03:48.240Z,89.90
2022-12-31T01:06:15.015Z,82.78
2022-12-31T01:08:41.687Z,79.75
2022-12-31T01:11:19.256Z,86.85
2022-12-31T01:13:52.387Z,84.65
2022-12-31T01:16:23.706Z,89.45
2022-12-31T01:18:50.497Z,94.15
2022-12-31T01:21:18.253Z,88.32
2022-12-31T01:23:45.053Z,88.53
2022-12-31T01:26:14.268Z,87.00
2022-12-31T01:28:41.261Z,84.55
2022-12-31T01:31:10.325Z,77.90
2022-12-31T01:33:37.583Z,79.35
2022-12-31T01:36:13.500Z,79.80
2022-12-31T01:38:41.158Z,82.93
2022-12-31T01:41:12.085Z,84.43
2022-12-31T01:43:54.483Z,85.47
2022-12-31T01:46:40.532Z,102.85
2022-12-31T01:49:17.649Z,105.40
2022-12-31T01:51:48.854Z,105.32
2022-12-31T01:54:18.348Z,99.72
2022-12-31T01:56:47.569Z,105.13
2022-12-31T01:59:17.047Z,84.50
2022-12-31T02:01:44.665Z,95.18
2022-12-31T02:04:13.835Z,90.80
2022-12-31T02:07:02.242Z,93.45
2022-12-31T02:09:29.835Z,89.70
2022-12-31T02:11:56.490Z,112.63
2022-12-31T02:14:26.979Z,105.70
2022-12-31T02:17:09.223Z,88.32
2022-12-31T02:19:57.574Z,102.97
2022-12-31T02:22:54.826Z,115.07
2022-12-31T02:25:43.100Z,91.90
2022-12-31T02:28:31.463Z,94.65
2022-12-31T02:31:11.369Z,86.07
2022-12-31T02:33:52.952Z,84.47
2022-12-31T02:36:25.627Z,77.75
2022-12-31T02:38:52.810Z,61.10
2022-12-31T02:41:39.744Z,81.05
2022-12-31T02:44:29.004Z,70.70
2022-12-31T02:47:13.749Z,69.60
2022-12-31T02:50:13.409Z,71.13
2022-12-31T02:52:52.146Z,65.35
2022-12-31T02:55:35.269Z,67.57
2022-12-31T02:58:01.777Z,75.55
2022-12-31T03:00:51.252Z,82.00
2022-12-31T03:03:20.335Z,72.47
2022-12-31T03:05:49.553Z,73.07
2022-12-31T03:08:23.931Z,60.78
2022-12-31T03:10:51.234Z,68.20
2022-12-31T03:13:20.235Z,67.63
2022-12-31T03:15:46.800Z,65.13
2022-12-31T03:18:18.244Z,69.28
2022-12-31T03:21:06.799Z,97.03
2022-12-31T03:23:35.595Z,84.25
2022-12-31T03:26:09.858Z,95.10
2022-12-31T03:28:41.560Z,131.75
2022-12-31T03:31:08.621Z,131.27
2022-12-31T03:33:38.107Z,127.65
2022-12-31T03:36:08.716Z,110.70
2022-12-31T03:38:35.801Z,102.28
2022-12-31T03:41:02.736Z,105.93
2022-12-31T03:43:29.410Z,92.15
2022-12-31T03:45:58.641Z,47.97
2022-12-31T03:48:26.686Z,83.30
2022-12-31T03:50:53.283Z,87.55
2022-12-31T03:53:19.900Z,72.70
2022-12-31T03:55:52.059Z,86.80
2022-12-31T03:58:18.767Z,77.45
2022-12-31T04:00:45.431Z,74.85
2022-12-31T04:03:12.141Z,76.03
2022-12-31T04:05:38.745Z,70.95
2022-12-31T04:08:05.400Z,70.85
2022-12-31T04:10:31.952Z,105.15
2022-12-31T04:13:00.556Z,97.00
2022-12-31T04:15:27.100Z,109.78
2022-12-31T04:17:53.719Z,117.35
2022-12-31T04:20:20.313Z,105.80
2022-12-31T04:22:46.950Z,96.35
2022-12-31T04:25:13.682Z,98.63
2022-12-31T04:27:41.471Z,92.03
2022-12-31T04:30:09.175Z,89.63
2022-12-31T04:32:35.816Z,94.78
2022-12-31T04:35:02.485Z,128.05
2022-12-31T04:37:29.096Z,140.95
2022-12-31T04:40:00.315Z,118.63
2022-12-31T04:42:30.310Z,119.18
2022-12-31T04:44:57.025Z,109.75
2022-12-31T04:47:24.079Z,106.82
2022-12-31T04:49:50.856Z,104.85
2022-12-31T04:52:17.406Z,98.93
2022-12-31T04:54:44.025Z,96.65
2022-12-31T04:57:10.671Z,127.70
2022-12-31T04:59:37.240Z,114.63
2022-12-31T05:02:04.011Z,126.95
2022-12-31T05:04:30.853Z,137.10
2022-12-31T05:06:57.548Z,123.90
2022-12-31T05:09:27.515Z,116.43
2022-12-31T05:11:54.228Z,97.03
2022-12-31T05:14:20.989Z,104.85
2022-12-31T05:16:47.828Z,109.82
2022-12-31T05:19:14.605Z,110.85
2022-12-31T05:21:41.299Z,104.22
2022-12-31T05:24:08.410Z,118.25
2022-12-31T05:26:35.380Z,155.55
2022-12-31T05:29:02.029Z,168.75
2022-12-31T05:31:28.754Z,143.77
2022-12-31T05:33:55.446Z,113.13
2022-12-31T05:36:22.093Z,123.15
2022-12-31T05:38:48.809Z,116.15
2022-12-31T05:41:15.397Z,117.07
2022-12-31T05:43:42.072Z,108.97
2022-12-31T05:46:08.981Z,93.68
2022-12-31T05:48:35.715Z,134.40
2022-12-31T05:51:02.448Z,143.45
2022-12-31T05:53:29.141Z,124.05
2022-12-31T05:55:55.730Z,165.15
2022-12-31T05:58:22.294Z,122.97
2022-12-31T06:00:48.952Z,111.70
2022-12-31T06:03:15.669Z,119.32
2022-12-31T06:05:43.371Z,115.13
2022-12-31T06:08:12.177Z,129.48
2022-12-31T06:10:39.933Z,101.70
2022-12-31T06:13:07.355Z,113.97
2022-12-31T06:15:37.545Z,88.95
2022-12-31T06:18:04.434Z,46.33
2022-12-31T06:20:31.161Z,75.10
2022-12-31T06:22:57.868Z,80.10
2022-12-31T06:25:24.513Z,65.28
2022-12-31T06:27:51.095Z,69.47
2022-12-31T06:30:17.815Z,76.68
2022-12-31T06:32:44.403Z,84.47
2022-12-31T06:35:11.261Z,90.55
2022-12-31T06:37:37.943Z,79.85
2022-12-31T06:40:05.178Z,66.43
2022-12-31T06:42:31.956Z,89.07
2022-12-31T06:44:59.298Z,104.63
2022-12-31T06:47:26.177Z,96.65
2022-12-31T06:49:53.260Z,86.57
2022-12-31T06:52:20.224Z,104.25
2022-12-31T06:54:47.125Z,104.00
2022-12-31T06:57:14.388Z,102.60
2022-12-31T06:59:41.469Z,92.38
2022-12-31T07:02:29.902Z,105.70
2022-12-31T07:05:11.838Z,76.60
2022-12-31T07:08:01.622Z,81.00
2022-12-31T07:10:47.108Z,78.30
2022-12-31T07:13:46.091Z,92.88
2022-12-31T07:16:30.794Z,81.35
2022-12-31T07:21:43.906Z,76.18
2022-12-31T07:24:11.899Z,84.10
2022-12-31T07:27:03.253Z,81.72
2022-12-31T07:29:29.803Z,74.90
2022-12-31T07:31:56.491Z,68.05
2022-12-31T07:34:30.651Z,79.05
2022-12-31T07:37:01.589Z,66.35
2022-12-31T07:39:37.078Z,66.85
2022-12-31T07:42:09.767Z,75.38
2022-12-31T07:44:45.148Z,71.95
2022-12-31T07:47:27.252Z,66.97
2022-12-31T07:49:55.159Z,56.88
2022-12-31T07:52:22.366Z,75.47
2022-12-31T07:54:49.253Z,62.20
2022-12-31T07:57:18.137Z,63.42
2022-12-31T07:59:50.423Z,63.67
2022-12-31T08:02:44.738Z,97.15
2022-12-31T08:05:29.898Z,67.73
2022-12-31T08:08:05.781Z,68.35
2022-12-31T08:10:43.746Z,79.82
2022-12-31T08:13:12.314Z,74.20
2022-12-31T08:15:40.190Z,79.20
2022-12-31T08:18:08.094Z,80.32
2022-12-31T08:20:58.463Z,98.28
2022-12-31T08:23:32.672Z,60.38
2022-12-31T08:26:17.275Z,76.20
2022-12-31T08:29:16.997Z,79.93
2022-12-31T08:31:58.329Z,84.03
2022-12-31T08:34:34.179Z,93.75
2022-12-31T08:37:32.933Z,85.80
2022-12-31T08:40:08.227Z,89.30
2022-12-31T08:43:01.198Z,55.72
2022-12-31T08:45:41.358Z,66.47
2022-12-31T08:48:35.559Z,83.82
2022-12-31T08:51:02.493Z,83.57
2022-12-31T08:53:29.435Z,97.10
2022-12-31T08:56:03.658Z,86.03
2022-12-31T08:58:45.433Z,92.60
2022-12-31T09:01:14.980Z,80.38
2022-12-31T09:03:47.095Z,89.75
2022-12-31T09:06:36.184Z,80.63
2022-12-31T09:09:28.186Z,96.25
2022-12-31T09:11:59.053Z,86.65
2022-12-31T09:14:34.309Z,73.15
2022-12-31T09:17:10.267Z,77.35
2022-12-31T09:19:36.942Z,72.38
2022-12-31T09:22:04.115Z,59.55
2022-12-31T09:24:31.087Z,81.13
2022-12-31T09:27:09.616Z,66.70
2022-12-31T09:29:42.159Z,57.03
2022-12-31T09:32:08.886Z,66.43
2022-12-31T09:34:35.490Z,72.78
2022-12-31T09:37:18.006Z,69.38
2022-12-31T09:39:47.270Z,71.53
2022-12-31T09:42:35.766Z,73.00
2022-12-31T09:45:30.942Z,77.57
2022-12-31T09:48:07.034Z,68.90
2022-12-31T09:51:11.233Z,71.85
2022-12-31T09:54:08.665Z,76.05
2022-12-31T09:56:36.926Z,67.78
2022-12-31T09:59:12.892Z,67.18
2022-12-31T10:02:19.608Z,67.10
2022-12-31T10:05:20.796Z,62.15
2022-12-31T10:08:06.188Z,66.15
2022-12-31T10:10:50.933Z,64.25
2022-12-31T10:13:29.805Z,77.57
2022-12-31T10:16:22.002Z,77.15
2022-12-31T10:19:14.119Z,78.28
2022-12-31T10:22:14.433Z,66.85
2022-12-31T10:25:05.097Z,77.45
2022-12-31T10:27:43.942Z,65.97
2022-12-31T10:30:18.760Z,71.80
2022-12-31T10:33:00.664Z,64.68
2022-12-31T10:35:40.099Z,71.57
2022-12-31T10:38:57.995Z,59.42
2022-12-31T10:41:33.404Z,58.03
2022-12-31T10:44:33.153Z,53.25
2022-12-31T10:47:24.781Z,60.67
2022-12-31T10:49:57.535Z,61.45
2022-12-31T10:53:13.135Z,65.75
2022-12-31T10:55:58.630Z,62.42
2022-12-31T10:58:31.198Z,56.55
2022-12-31T11:01:19.193Z,63.65
2022-12-31T11:04:03.931Z,72.38
2022-12-31T11:06:52.402Z,63.25
2022-12-31T11:09:49.970Z,60.90
2022-12-31T11:13:01.233Z,58.55
2022-12-31T11:15:52.363Z,60.03
2022-12-31T11:18:37.367Z,60.45
2022-12-31T11:21:28.288Z,60.47
2022-12-31T11:24:26.590Z,56.20
2022-12-31T11:27:07.579Z,61.88
2022-12-31T11:29:40.317Z,61.25
2022-12-31T11:32:36.389Z,58.85
2022-12-31T11:35:20.777Z,56.40
2022-12-31T11:37:50.601Z,58.15
2022-12-31T11:40:42.041Z,51.58
2022-12-31T11:43:22.765Z,52.85
2022-12-31T11:46:15.706Z,58.30
2022-12-31T11:49:04.329Z,51.00
2022-12-31T11:51:50.025Z,52.78
2022-12-31T11:54:40.285Z,47.55
2022-12-31T11:57:19.143Z,49.30
2022-12-31T11:59:46.804Z,62.55
2022-12-31T12:02:37.605Z,61.60
2022-12-31T12:05:11.104Z,54.95
2022-12-31T12:07:38.372Z,52.80
2022-12-31T12:10:36.727Z,63.47
2022-12-31T12:13:20.420Z,59.58
2022-12-31T12:15:51.043Z,62.05
2022-12-31T12:18:43.755Z,56.35
2022-12-31T12:21:24.186Z,59.60
2022-12-31T12:24:06.340Z,65.45
2022-12-31T12:26:39.299Z,63.05
2022-12-31T12:29:16.972Z,67.18
2022-12-31T12:32:12.528Z,63.95
2022-12-31T12:34:44.534Z,64.22
2022-12-31T12:37:27.134Z,73.18
2022-12-31T12:40:02.502Z,62.08
2022-12-31T12:42:30.250Z,68.13
2022-12-31T12:45:23.122Z,62.28
2022-12-31T12:47:56.450Z,64.70
2022-12-31T12:50:26.776Z,62.13
2022-12-31T12:53:37.679Z,64.93
2022-12-31T12:56:07.107Z,57.22
2022-12-31T12:58:49.876Z,53.55
2022-12-31T13:01:44.639Z,53.83
2022-12-31T13:04:36.175Z,61.65
2022-12-31T13:07:26.378Z,70.13
2022-12-31T13:10:08.047Z,79.88
2022-12-31T13:16:21.357Z,72.68
2022-12-31T13:19:09.304Z,68.80
2022-12-31T13:21:47.238Z,67.10
2022-12-31T13:24:47.079Z,67.80
2022-12-31T13:27:45.967Z,63.08
2022-12-31T13:30:19.746Z,64.07
2022-12-31T13:33:09.587Z,60.65
2022-12-31T13:35:57.772Z,81.38
2022-12-31T13:38:32.807Z,82.05
2022-12-31T13:41:21.275Z,74.43
2022-12-31T13:44:32.606Z,75.70
2022-12-31T13:47:48.494Z,68.63
2022-12-31T13:50:19.422Z,62.42
2022-12-31T13:52:57.969Z,78.15
2022-12-31T13:55:33.929Z,59.63
2022-12-31T13:58:15.648Z,54.15
2022-12-31T14:00:52.906Z,53.47
2022-12-31T14:03:25.854Z,50.15
2022-12-31T14:05:58.595Z,45.83
2022-12-31T14:08:25.256Z,39.13
2022-12-31T14:11:07.622Z,42.72
2022-12-31T14:13:35.043Z,40.72
2022-12-31T14:16:10.642Z,39.28
2022-12-31T14:18:54.124Z,49.97
2022-12-31T14:21:33.241Z,45.38
2022-12-31T14:24:12.932Z,56.83
2022-12-31T14:27:03.908Z,59.67
2022-12-31T14:30:03.876Z,46.83
2022-12-31T14:33:08.797Z,36.65
2022-12-31T14:35:55.811Z,45.10
2022-12-31T14:38:50.676Z,42.85
2022-12-31T14:41:44.974Z,50.45
2022-12-31T14:44:42.280Z,40.60
2022-12-31T14:47:27.633Z,30.38
2022-12-31T14:50:11.073Z,47.08
2022-12-31T14:52:53.168Z,39.95
2022-12-31T14:55:24.637Z,45.25
2022-12-31T14:58:26.379Z,46.50
2022-12-31T15:00:50.821Z,40.53
2022-12-31T15:03:17.630Z,44.85
2022-12-31T15:05:54.472Z,32.25
2022-12-31T15:08:39.560Z,37.53
2022-12-31T15:11:25.488Z,39.38
2022-12-31T15:14:38.916Z,42.67
2022-12-31T15:17:42.466Z,39.00
2022-12-31T15:20:17.196Z,42.42
2022-12-31T15:22:44.392Z,52.95
2022-12-31T15:25:47.761Z,32.17
2022-12-31T15:28:40.874Z,46.08
2022-12-31T15:31:18.501Z,47.67
2022-12-31T15:34:00.948Z,55.80
2022-12-31T15:36:41.879Z,67.65
2022-12-31T15:39:11.189Z,57.97
2022-12-31T15:42:10.339Z,74.07
2022-12-31T15:44:33.130Z,88.72
2022-12-31T15:47:15.928Z,91.30
2022-12-31T15:49:47.860Z,90.43
2022-12-31T15:52:36.568Z,104.32
2022-12-31T15:55:05.670Z,109.32
2022-12-31T15:57:40.336Z,107.28
2022-12-31T16:00:19.675Z,110.10
2022-12-31T16:02:48.584Z,108.63
2022-12-31T16:05:28.070Z,84.30
2022-12-31T16:07:56.927Z,82.22
2022-12-31T16:10:35.406Z,146.27
2022-12-31T16:13:02.132Z,140.90
2022-12-31T16:15:31.639Z,157.20
2022-12-31T16:18:23.160Z,147.23
2022-12-31T16:20:51.842Z,128.90
2022-12-31T16:23:27.598Z,87.18
2022-12-31T16:26:00.649Z,178.88
2022-12-31T16:28:32.519Z,149.02
2022-12-31T16:31:03.060Z,124.53
2022-12-31T16:33:31.198Z,187.30
2022-12-31T16:36:00.065Z,135.25
2022-12-31T16:38:35.381Z,121.78
2022-12-31T16:41:01.903Z,91.22
2022-12-31T16:43:30.928Z,87.07
2022-12-31T16:46:11.834Z,95.75
2022-12-31T16:48:38.913Z,116.13
2022-12-31T16:51:06.217Z,151.43
2022-12-31T16:53:37.202Z,146.45
2022-12-31T16:56:10.787Z,153.55
2022-12-31T16:58:41.693Z,160.83
2022-12-31T17:01:26.093Z,194.57
2022-12-31T17:03:58.392Z,162.30
2022-12-31T17:06:27.208Z,163.30
2022-12-31T17:08:57.948Z,130.52
2022-12-31T17:11:30.468Z,124.15
2022-12-31T17:14:06.746Z,118.45
2022-12-31T17:17:06.384Z,116.20
2022-12-31T17:19:35.997Z,158.52
2022-12-31T17:22:09.798Z,148.45
2022-12-31T17:24:38.035Z,157.52
2022-12-31T17:27:08.881Z,178.52
2022-12-31T17:29:36.146Z,183.40
2022-12-31T17:32:02.720Z,162.68
2022-12-31T17:34:49.122Z,148.43
2022-12-31T17:37:23.246Z,126.25
2022-12-31T17:40:48.652Z,117.45
2022-12-31T17:42:50.320Z,135.80
2022-12-31T17:45:22.111Z,153.50
2022-12-31T17:47:52.545Z,182.95
2022-12-31T17:50:26.094Z,157.88
2022-12-31T17:52:56.503Z,163.80
2022-12-31T17:55:23.486Z,176.32
2022-12-31T17:57:53.567Z,180.32
2022-12-31T18:00:23.527Z,186.48
2022-12-31T18:02:52.650Z,184.63
2022-12-31T18:05:21.633Z,190.32
2022-12-31T18:07:48.322Z,143.35
2022-12-31T18:10:17.415Z,128.45
2022-12-31T18:12:45.096Z,130.75
2022-12-31T18:15:17.410Z,124.55
2022-12-31T18:17:44.600Z,114.10
2022-12-31T18:20:12.276Z,123.57
2022-12-31T18:22:41.252Z,136.98
2022-12-31T18:25:19.215Z,131.40
2022-12-31T18:27:45.926Z,122.38
2022-12-31T18:30:13.283Z,130.05
2022-12-31T18:32:41.552Z,142.27
2022-12-31T18:38:13.250Z,136.80
2022-12-31T18:40:44.203Z,136.07
2022-12-31T18:43:18.921Z,130.55
2022-12-31T18:45:46.774Z,124.93
2022-12-31T18:48:13.507Z,135.60
2022-12-31T18:50:41.396Z,122.88
2022-12-31T18:53:14.901Z,110.95
2022-12-31T18:55:46.138Z,106.20
2022-12-31T18:58:12.765Z,120.85
2022-12-31T19:00:39.585Z,100.13
2022-12-31T19:03:06.339Z,86.03
2022-12-31T19:05:36.611Z,96.38
2022-12-31T19:08:03.423Z,90.80
2022-12-31T19:10:30.076Z,94.20
2022-12-31T19:12:56.698Z,99.97
2022-12-31T19:15:25.971Z,121.53
2022-12-31T19:17:52.881Z,113.00
2022-12-31T19:20:19.554Z,115.88
2022-12-31T19:22:46.265Z,123.30
2022-12-31T19:25:35.833Z,136.27
2022-12-31T19:28:04.269Z,119.03
2022-12-31T19:30:33.452Z,111.47
2022-12-31T19:33:00.553Z,101.20
2022-12-31T19:35:27.949Z,122.03
2022-12-31T19:37:55.525Z,116.90
2022-12-31T19:40:25.117Z,113.97
2022-12-31T19:42:56.331Z,106.63
2022-12-31T19:45:27.522Z,91.30
2022-12-31T19:47:55.953Z,97.25
2022-12-31T19:50:25.601Z,105.18
2022-12-31T19:52:54.760Z,103.13
2022-12-31T19:55:22.910Z,100.00
2022-12-31T19:57:49.674Z,112.10
2022-12-31T20:00:18.193Z,111.63
2022-12-31T20:02:47.452Z,102.40
2022-12-31T20:05:15.828Z,98.90
2022-12-31T20:07:42.724Z,90.47
2022-12-31T20:10:10.888Z,102.63
2022-12-31T20:12:43.919Z,111.07
2022-12-31T20:15:11.214Z,118.03
2022-12-31T20:17:38.020Z,110.55
2022-12-31T20:20:06.832Z,112.47
2022-12-31T20:22:33.685Z,109.78
2022-12-31T20:25:00.415Z,117.25
2022-12-31T20:27:27.063Z,112.40
2022-12-31T20:29:53.693Z,116.43
2022-12-31T20:32:20.312Z,118.45
2022-12-31T20:34:46.936Z,120.65
2022-12-31T20:37:13.722Z,117.50
2022-12-31T20:39:40.353Z,116.57
2022-12-31T20:42:07.059Z,128.70
2022-12-31T20:44:33.873Z,124.78
2022-12-31T20:47:00.531Z,120.45
2022-12-31T20:50:00.837Z,116.80
2022-12-31T20:52:13.766Z,132.57
2022-12-31T20:54:40.373Z,131.88
2022-12-31T20:57:07.027Z,126.43
2022-12-31T20:59:33.639Z,122.25
2022-12-31T21:04:47.156Z,116.40
2022-12-31T21:07:13.828Z,111.90
2022-12-31T21:09:40.443Z,125.05
2022-12-31T21:12:25.631Z,123.93
2022-12-31T21:14:52.275Z,164.23
2022-12-31T21:17:18.850Z,189.13
2022-12-31T21:19:45.681Z,208.30
2022-12-31T21:22:12.459Z,212.32
2022-12-31T21:24:41.570Z,217.27
2022-12-31T21:27:08.161Z,190.15
2022-12-31T21:29:41.876Z,216.38
2022-12-31T21:32:17.135Z,194.52
2022-12-31T21:34:43.701Z,181.10
2022-12-31T21:37:10.340Z,175.65
2022-12-31T21:39:36.938Z,185.40
2022-12-31T21:42:04.032Z,212.20
2022-12-31T21:44:30.803Z,195.43
2022-12-31T21:47:39.717Z,168.77
2022-12-31T21:50:08.209Z,180.40
2022-12-31T21:52:35.284Z,171.55
2022-12-31T21:55:22.867Z,152.90
2022-12-31T22:00:56.109Z,162.32
2022-12-31T22:03:27.800Z,185.30
2022-12-31T22:06:12.555Z,188.88
2022-12-31T22:08:44.151Z,330.58
2022-12-31T22:11:12.459Z,279.95
2022-12-31T22:13:39.888Z,190.88
2022-12-31T22:16:07.611Z,232.68
2022-12-31T22:18:38.844Z,341.58
2022-12-31T22:21:18.408Z,279.63
2022-12-31T22:23:52.112Z,251.20
2022-12-31T22:26:22.021Z,239.05
2022-12-31T22:28:48.690Z,200.77
2022-12-31T22:31:22.743Z,154.40
2022-12-31T22:33:49.482Z,139.15
2022-12-31T22:36:19.815Z,154.80
2022-12-31T22:38:47.286Z,170.77
2022-12-31T22:41:19.561Z,178.40
2022-12-31T22:44:03.791Z,181.32
2022-12-31T22:46:32.645Z,190.10
2022-12-31T22:49:00.475Z,186.52
2022-12-31T22:51:54.985Z,181.27
2022-12-31T22:54:14.821Z,193.68
2022-12-31T22:56:41.619Z,184.65
2022-12-31T22:59:08.593Z,182.05
2022-12-31T23:01:35.362Z,217.50
2022-12-31T23:04:02.059Z,225.98
2022-12-31T23:06:29.170Z,263.40
2022-12-31T23:09:14.505Z,284.65
2022-12-31T23:11:43.126Z,234.57
2022-12-31T23:14:34.312Z,226.50
2022-12-31T23:17:29.675Z,197.02
2022-12-31T23:20:18.377Z,198.82
2022-12-31T23:23:04.895Z,202.93
2022-12-31T23:25:43.716Z,177.25
2022-12-31T23:28:13.571Z,182.65
2022-12-31T23:30:41.641Z,165.85
2022-12-31T23:33:12.419Z,130.88
2022-12-31T23:35:39.014Z,133.88
2022-12-31T23:38:05.634Z,131.57
2022-12-31T23:40:37.086Z,125.25
2022-12-31T23:43:08.118Z,112.40
2022-12-31T23:45:35.115Z,85.00
2022-12-31T23:48:01.952Z,97.95
2022-12-31T23:50:28.958Z,99.53
2022-12-31T23:52:55.644Z,100.40
2022-12-31T23:55:22.232Z,102.47
2022-12-31T23:57:48.904Z,103.97
